Time;durP1;ratioP1;P1;durP2;ratioP2;P2;SDS_P1;SDS_P2;PMS_P1;PMS_P2;Temp;Humidity;BMP_temperature;BMP_pressure;BME280_temperature;BME280_humidity;BME280_pressure;Samples;Min_cycle;Max_cycle;Signal;HPM_P1;HPM_P2
2023/01/16 00:01:20;;;;;;;0.80;0.80;;;;;2.10;94726.00;;;;4995929;28;20664;-61
2023/01/16 00:03:48;;;;;;;0.67;0.67;;;;;2.10;94721.00;;;;5013693;28;20842;-62
2023/01/16 00:06:15;;;;;;;0.60;0.60;;;;;2.00;94700.00;;;;5013699;28;20181;-61
2023/01/16 00:08:44;;;;;;;0.90;0.90;;;;;2.00;94708.00;;;;5013424;28;20204;-61
2023/01/16 00:11:12;;;;;;;0.70;0.70;;;;;2.00;94714.00;;;;5013526;28;20534;-61
2023/01/16 00:13:40;;;;;;;0.83;0.83;;;;;2.00;94702.00;;;;5013479;28;20226;-62
2023/01/16 00:16:08;;;;;;;0.50;0.50;;;;;2.00;94699.00;;;;4995660;28;20231;-61
2023/01/16 00:18:35;;;;;;;0.60;0.60;;;;;2.10;94694.00;;;;5013357;28;20199;-63
2023/01/16 00:21:03;;;;;;;0.60;0.60;;;;;2.00;94693.00;;;;5013324;28;20200;-61
2023/01/16 00:23:31;;;;;;;0.80;0.80;;;;;2.00;94689.00;;;;5013183;28;20189;-61
2023/01/16 00:25:59;;;;;;;0.53;0.53;;;;;2.00;94680.00;;;;4995694;28;20229;-62
2023/01/16 00:28:27;;;;;;;2.60;2.03;;;;;2.00;94674.00;;;;5013405;28;20193;-62
2023/01/16 00:30:54;;;;;;;0.70;0.70;;;;;2.00;94682.00;;;;5013206;28;20200;-62
2023/01/16 00:33:22;;;;;;;0.83;0.80;;;;;2.00;94677.00;;;;5013094;28;20213;-61
2023/01/16 00:35:49;;;;;;;0.60;0.60;;;;;2.00;94667.00;;;;5013238;28;20220;-61
2023/01/16 00:38:16;;;;;;;1.37;1.27;;;;;2.00;94665.00;;;;5013108;28;20208;-61
2023/01/16 00:40:44;;;;;;;0.60;0.60;;;;;2.10;94678.00;;;;5013387;28;20284;-60
2023/01/16 00:43:13;;;;;;;0.97;0.97;;;;;2.10;94667.00;;;;5013107;28;20197;-61
2023/01/16 00:45:40;;;;;;;0.70;0.70;;;;;2.00;94662.00;;;;5013017;28;20232;-61
2023/01/16 00:48:08;;;;;;;6.03;1.43;;;;;2.00;94657.00;;;;5013264;28;20200;-60
2023/01/16 00:50:35;;;;;;;0.60;0.60;;;;;2.00;94638.00;;;;5013272;28;20202;-61
2023/01/16 00:53:03;;;;;;;0.67;0.67;;;;;2.00;94639.00;;;;5012838;28;20223;-62
2023/01/16 00:55:30;;;;;;;0.70;0.70;;;;;2.00;94640.00;;;;5013608;28;20699;-61
2023/01/16 00:57:57;;;;;;;0.60;0.60;;;;;2.00;94634.00;;;;4995333;28;20197;-61
2023/01/16 01:00:27;;;;;;;0.60;0.60;;;;;2.10;94628.00;;;;5012950;28;20246;-62
2023/01/16 01:02:54;;;;;;;0.60;0.60;;;;;2.10;94617.00;;;;5012895;28;20200;-61
2023/01/16 01:05:22;;;;;;;0.60;0.60;;;;;2.10;94619.00;;;;5012750;28;20236;-61
2023/01/16 01:07:49;;;;;;;0.60;0.60;;;;;2.20;94609.00;;;;5013103;28;20216;-61
2023/01/16 01:10:17;;;;;;;0.67;0.67;;;;;2.10;94602.00;;;;5012870;28;20276;-61
2023/01/16 01:12:45;;;;;;;0.80;0.80;;;;;2.20;94600.00;;;;5013466;28;20622;-61
2023/01/16 01:15:12;;;;;;;1.43;1.33;;;;;2.00;94591.00;;;;5012732;28;20218;-61
2023/01/16 01:17:41;;;;;;;0.83;0.83;;;;;2.00;94581.00;;;;5012950;28;20203;-60
2023/01/16 01:20:10;;;;;;;0.70;0.70;;;;;1.90;94582.00;;;;5012921;28;20560;-60
2023/01/16 01:22:38;;;;;;;0.60;0.60;;;;;1.80;94578.00;;;;4979556;28;20213;-62
2023/01/16 01:25:06;;;;;;;0.60;0.60;;;;;1.70;94577.00;;;;5012657;28;20213;-60
2023/01/16 01:27:33;;;;;;;0.70;0.70;;;;;1.60;94573.00;;;;5013401;28;20217;-60
2023/01/16 01:30:01;;;;;;;0.77;0.77;;;;;1.60;94576.00;;;;5016210;28;20208;-60
2023/01/16 01:32:28;;;;;;;0.70;0.70;;;;;1.60;94577.00;;;;5016087;28;20209;-60
2023/01/16 01:34:58;;;;;;;0.70;0.70;;;;;1.50;94579.00;;;;4998503;28;20228;-60
2023/01/16 01:37:26;;;;;;;0.60;0.60;;;;;1.50;94576.00;;;;5016051;28;20202;-60
2023/01/16 01:39:53;;;;;;;1.57;1.47;;;;;1.60;94567.00;;;;5015982;28;20656;-60
2023/01/16 01:45:12;;;;;;;0.80;0.80;;;;;1.70;94557.00;;;;5016105;28;20219;-60
2023/01/16 01:47:43;;;;;;;0.70;0.70;;;;;1.70;94559.00;;;;4998236;28;20190;-61
2023/01/16 01:50:19;;;;;;;1.03;1.03;;;;;1.80;94552.00;;;;5016366;28;20188;-60
2023/01/16 01:52:47;;;;;;;0.60;0.60;;;;;1.60;94536.00;;;;5015757;28;20187;-60
2023/01/16 01:55:16;;;;;;;0.70;0.70;;;;;1.60;94527.00;;;;5015637;28;20279;-60
2023/01/16 01:57:48;;;;;;;0.90;0.90;;;;;1.90;94518.00;;;;5015660;28;20254;-60
2023/01/16 02:00:19;;;;;;;13.23;1.10;;;;;1.80;94517.00;;;;5016190;28;20247;-60
2023/01/16 02:02:51;;;;;;;0.60;0.60;;;;;1.80;94505.00;;;;5015730;28;20200;-60
2023/01/16 02:05:24;;;;;;;5.50;1.03;;;;;1.90;94508.00;;;;5050062;22;20226;-59
2023/01/16 02:07:52;;;;;;;0.70;0.70;;;;;1.90;94509.00;;;;5075653;28;20181;-61
2023/01/16 02:10:28;;;;;;;0.60;0.60;;;;;1.70;94493.00;;;;5075312;28;20191;-60
2023/01/16 02:12:56;;;;;;;1.23;1.23;;;;;1.70;94492.00;;;;5075229;28;20291;-61
2023/01/16 02:15:24;;;;;;;0.70;0.70;;;;;1.70;94483.00;;;;5074929;28;20218;-60
2023/01/16 02:20:51;;;;;;;0.80;0.80;;;;;1.60;94456.00;;;;5075274;28;20650;-61
2023/01/16 02:24:06;;;;;;;0.63;0.63;;;;;1.50;94450.00;;;;5075031;28;20662;-60
2023/01/16 02:27:03;;;;;;;0.70;0.70;;;;;1.50;94442.00;;;;5075011;28;20233;-60
2023/01/16 02:29:47;;;;;;;0.60;0.60;;;;;1.50;94436.00;;;;5075282;28;20190;-61
2023/01/16 02:32:30;;;;;;;0.70;0.70;;;;;1.50;94428.00;;;;5074899;28;20179;-61
2023/01/16 02:35:28;;;;;;;0.90;0.90;;;;;1.40;94422.00;;;;5056540;28;20747;-61
2023/01/16 02:38:00;;;;;;;0.60;0.60;;;;;1.40;94410.00;;;;5074536;28;20201;-61
2023/01/16 02:40:39;;;;;;;0.60;0.60;;;;;1.40;94404.00;;;;5073669;28;20625;-62
2023/01/16 02:43:15;;;;;;;1.40;1.20;;;;;1.50;94398.00;;;;5074761;28;20613;-61
2023/01/16 02:45:49;;;;;;;0.60;0.60;;;;;1.50;94396.00;;;;5074506;28;20715;-61
2023/01/16 02:48:28;;;;;;;0.70;0.70;;;;;1.60;94379.00;;;;5074639;28;20240;-61
2023/01/16 02:51:02;;;;;;;0.60;0.60;;;;;1.60;94378.00;;;;5074654;28;20195;-61
2023/01/16 02:53:35;;;;;;;0.60;0.60;;;;;1.80;94368.00;;;;5074470;28;20662;-61
2023/01/16 02:56:08;;;;;;;0.80;0.80;;;;;1.90;94356.00;;;;5074263;28;20214;-59
2023/01/16 02:58:40;;;;;;;0.60;0.60;;;;;1.80;94355.00;;;;5074433;28;20556;-61
2023/01/16 03:01:09;;;;;;;7.90;1.47;;;;;1.90;94342.00;;;;5074121;28;20187;-61
2023/01/16 03:03:43;;;;;;;1.00;1.00;;;;;2.00;94338.00;;;;5074280;28;20604;-60
2023/01/16 03:06:33;;;;;;;0.70;0.70;;;;;2.00;94348.00;;;;5074000;28;20283;-60
2023/01/16 03:09:23;;;;;;;0.60;0.60;;;;;2.10;94338.00;;;;5074266;28;20188;-60
2023/01/16 03:12:01;;;;;;;0.87;0.87;;;;;2.00;94338.00;;;;5074037;28;20232;-61
2023/01/16 03:14:36;;;;;;;0.93;0.93;;;;;2.20;94334.00;;;;5073691;28;20288;-60
2023/01/16 03:17:19;;;;;;;0.80;0.80;;;;;2.20;94321.00;;;;5074071;28;20182;-60
2023/01/16 03:20:04;;;;;;;2.23;2.03;;;;;2.30;94313.00;;;;5073923;28;20192;-60
2023/01/16 03:22:38;;;;;;;0.60;0.60;;;;;2.40;94303.00;;;;5073685;28;20194;-61
2023/01/16 03:25:20;;;;;;;8.87;1.57;;;;;2.20;94289.00;;;;5055549;28;20264;-60
2023/01/16 03:27:57;;;;;;;0.80;0.80;;;;;2.30;94281.00;;;;5074147;28;20190;-60
2023/01/16 03:30:32;;;;;;;0.70;0.70;;;;;2.20;94279.00;;;;5074088;28;20185;-60
2023/01/16 03:33:05;;;;;;;1.07;1.07;;;;;2.20;94273.00;;;;5073829;28;20185;-61
2023/01/16 03:35:38;;;;;;;0.60;0.60;;;;;2.20;94271.00;;;;5073473;28;20240;-60
2023/01/16 03:38:09;;;;;;;1.13;1.13;;;;;2.20;94263.00;;;;5073923;28;20179;-61
2023/01/16 03:40:41;;;;;;;0.70;0.70;;;;;2.20;94248.00;;;;5073504;28;20182;-61
2023/01/16 03:43:12;;;;;;;1.17;0.73;;;;;2.20;94236.00;;;;5073381;28;20183;-61
2023/01/16 03:45:42;;;;;;;0.63;0.63;;;;;2.10;94226.00;;;;5073461;28;20222;-61
2023/01/16 03:48:14;;;;;;;0.70;0.70;;;;;2.20;94230.00;;;;5073232;28;20190;-61
2023/01/16 03:50:47;;;;;;;0.70;0.70;;;;;2.10;94214.00;;;;5073257;28;20253;-61
2023/01/16 03:53:18;;;;;;;0.60;0.60;;;;;2.20;94209.00;;;;5073481;28;20186;-60
2023/01/16 03:55:54;;;;;;;0.60;0.60;;;;;2.20;94200.00;;;;5073822;28;20223;-61
2023/01/16 03:58:29;;;;;;;1.10;1.10;;;;;2.40;94203.00;;;;5073292;28;20175;-61
2023/01/16 04:01:02;;;;;;;0.70;0.70;;;;;2.40;94198.00;;;;5073734;28;20179;-61
2023/01/16 04:03:37;;;;;;;0.67;0.67;;;;;2.30;94182.00;;;;5073660;28;20186;-59
2023/01/16 04:06:11;;;;;;;0.70;0.70;;;;;2.40;94183.00;;;;5073224;28;20225;-60
2023/01/16 04:08:42;;;;;;;0.60;0.60;;;;;2.40;94169.00;;;;5073571;28;20189;-61
2023/01/16 04:11:10;;;;;;;0.70;0.70;;;;;2.50;94160.00;;;;5073320;28;20520;-60
2023/01/16 04:13:40;;;;;;;0.80;0.80;;;;;2.50;94152.00;;;;5073360;28;20199;-60
2023/01/16 04:16:13;;;;;;;0.70;0.70;;;;;2.50;94147.00;;;;5073143;28;20217;-61
2023/01/16 04:18:42;;;;;;;0.70;0.70;;;;;2.40;94148.00;;;;5073277;28;20620;-60
2023/01/16 04:21:10;;;;;;;0.90;0.90;;;;;2.50;94130.00;;;;5073460;28;20190;-60
2023/01/16 04:23:38;;;;;;;0.70;0.70;;;;;2.50;94130.00;;;;5072957;28;20197;-61
2023/01/16 04:26:05;;;;;;;3.93;1.03;;;;;2.60;94127.00;;;;5072970;28;20769;-60
2023/01/16 04:28:33;;;;;;;0.60;0.60;;;;;2.50;94118.00;;;;5072966;28;20202;-60
2023/01/16 04:31:00;;;;;;;0.70;0.70;;;;;2.40;94108.00;;;;5073124;28;20661;-61
2023/01/16 04:33:28;;;;;;;1.00;1.00;;;;;2.30;94098.00;;;;5072750;28;20260;-60
2023/01/16 04:35:55;;;;;;;0.80;0.80;;;;;2.30;94084.00;;;;5072810;28;20324;-61
2023/01/16 04:38:24;;;;;;;0.63;0.63;;;;;2.40;94075.00;;;;5072784;28;20202;-61
2023/01/16 04:40:54;;;;;;;0.70;0.70;;;;;2.30;94070.00;;;;5072787;28;20190;-61
2023/01/16 04:43:22;;;;;;;0.77;0.77;;;;;2.50;94074.00;;;;5072828;28;20717;-61
2023/01/16 04:45:49;;;;;;;0.77;0.77;;;;;2.40;94058.00;;;;5073303;28;20268;-61
2023/01/16 04:48:17;;;;;;;0.60;0.60;;;;;2.20;94050.00;;;;5073308;28;20249;-61
2023/01/16 04:50:47;;;;;;;11.13;1.03;;;;;2.20;94052.00;;;;5054660;28;20240;-60
2023/01/16 04:53:15;;;;;;;0.70;0.70;;;;;2.20;94035.00;;;;5073010;28;20252;-61
2023/01/16 04:55:44;;;;;;;14.23;1.50;;;;;2.10;94030.00;;;;5072494;28;20241;-60
2023/01/16 04:58:11;;;;;;;0.70;0.70;;;;;2.10;94019.00;;;;5072887;28;20546;-60
2023/01/16 05:00:38;;;;;;;0.67;0.67;;;;;2.00;94013.00;;;;5073003;28;20275;-61
2023/01/16 05:03:06;;;;;;;0.60;0.60;;;;;2.00;94001.00;;;;5074720;28;20198;-61
2023/01/16 05:05:33;;;;;;;0.73;0.73;;;;;1.90;93997.00;;;;5076302;28;20241;-60
2023/01/16 05:08:16;;;;;;;0.70;0.70;;;;;2.00;93992.00;;;;5076338;28;20193;-61
2023/01/16 05:10:45;;;;;;;0.73;0.73;;;;;2.00;94000.00;;;;5076262;28;20242;-60
2023/01/16 05:13:12;;;;;;;0.70;0.70;;;;;1.80;93989.00;;;;5076192;28;20594;-61
2023/01/16 05:15:40;;;;;;;0.70;0.70;;;;;1.90;93976.00;;;;5076243;28;20690;-61
2023/01/16 05:18:07;;;;;;;0.80;0.80;;;;;1.60;93962.00;;;;5076113;28;20683;-61
2023/01/16 05:20:35;;;;;;;0.70;0.70;;;;;1.70;93961.00;;;;5076270;28;20591;-60
2023/01/16 05:23:02;;;;;;;1.13;1.13;;;;;1.70;93947.00;;;;5076634;28;20214;-60
2023/01/16 05:25:29;;;;;;;0.70;0.70;;;;;1.90;93943.00;;;;5076177;28;20222;-60
2023/01/16 05:27:58;;;;;;;0.70;0.70;;;;;1.80;93937.00;;;;5058804;28;20267;-61
2023/01/16 05:30:26;;;;;;;0.70;0.70;;;;;1.80;93920.00;;;;5076341;28;20198;-61
2023/01/16 05:32:53;;;;;;;0.77;0.73;;;;;1.80;93904.00;;;;5076518;28;20197;-60
2023/01/16 05:35:20;;;;;;;0.80;0.80;;;;;1.70;93911.00;;;;5076011;28;20226;-60
2023/01/16 05:37:48;;;;;;;0.87;0.87;;;;;1.70;93912.00;;;;5076438;28;20194;-61
2023/01/16 05:40:15;;;;;;;1.13;1.00;;;;;1.60;93901.00;;;;5076005;28;20235;-61
2023/01/16 05:42:44;;;;;;;1.80;1.20;;;;;1.70;93892.00;;;;5075599;28;20197;-59
2023/01/16 05:45:13;;;;;;;0.73;0.73;;;;;1.60;93884.00;;;;5075822;28;20259;-61
2023/01/16 05:47:40;;;;;;;1.03;1.03;;;;;1.60;93865.00;;;;5075504;28;20196;-60
2023/01/16 05:50:09;;;;;;;0.63;0.63;;;;;1.50;93866.00;;;;5075746;28;20208;-60
2023/01/16 05:52:36;;;;;;;0.80;0.80;;;;;1.50;93865.00;;;;5075472;28;20252;-61
2023/01/16 05:55:05;;;;;;;0.70;0.70;;;;;1.50;93849.00;;;;5075315;28;20230;-61
2023/01/16 05:57:32;;;;;;;0.63;0.63;;;;;1.30;93848.00;;;;5075372;28;20657;-62
2023/01/16 06:00:00;;;;;;;0.70;0.70;;;;;1.40;93827.00;;;;5075605;28;20247;-61
2023/01/16 06:02:29;;;;;;;0.90;0.90;;;;;1.60;93812.00;;;;5075332;28;20798;-60
2023/01/16 06:04:56;;;;;;;1.43;1.33;;;;;1.70;93810.00;;;;5075458;28;20222;-60
2023/01/16 06:07:23;;;;;;;0.90;0.90;;;;;1.50;93806.00;;;;5075131;28;20196;-61
2023/01/16 06:09:51;;;;;;;2.13;1.93;;;;;1.70;93785.00;;;;5075202;28;20194;-60
2023/01/16 06:12:20;;;;;;;0.70;0.70;;;;;1.60;93793.00;;;;5075109;28;20243;-61
2023/01/16 06:14:47;;;;;;;0.80;0.80;;;;;1.50;93783.00;;;;5074927;28;20292;-60
2023/01/16 06:17:16;;;;;;;0.70;0.70;;;;;1.60;93769.00;;;;5074971;28;20211;-61
2023/01/16 06:19:45;;;;;;;0.73;0.73;;;;;1.60;93772.00;;;;5074828;28;20194;-60
2023/01/16 06:22:12;;;;;;;0.70;0.70;;;;;1.70;93764.00;;;;5074871;28;20198;-60
2023/01/16 06:24:40;;;;;;;0.70;0.70;;;;;1.70;93763.00;;;;5074724;28;20248;-60
2023/01/16 06:27:08;;;;;;;1.17;1.17;;;;;1.80;93755.00;;;;5074724;28;20634;-61
2023/01/16 06:29:38;;;;;;;6.23;2.20;;;;;1.70;93737.00;;;;5075163;28;20198;-60
2023/01/16 06:32:06;;;;;;;0.73;0.73;;;;;1.70;93732.00;;;;5074957;28;20202;-60
2023/01/16 06:34:33;;;;;;;0.67;0.67;;;;;1.60;93732.00;;;;5074737;28;20680;-61
2023/01/16 06:37:02;;;;;;;0.70;0.70;;;;;1.50;93726.00;;;;5074834;28;20198;-61
2023/01/16 06:39:29;;;;;;;1.10;1.10;;;;;1.60;93723.00;;;;5074816;28;20243;-61
2023/01/16 06:41:56;;;;;;;0.70;0.70;;;;;1.50;93707.00;;;;5074505;28;20660;-61
2023/01/16 06:44:24;;;;;;;0.90;0.90;;;;;1.60;93715.00;;;;5074406;28;20202;-60
2023/01/16 06:46:51;;;;;;;0.73;0.73;;;;;1.50;93720.00;;;;5074698;28;20247;-60
2023/01/16 06:49:19;;;;;;;0.70;0.70;;;;;1.50;93716.00;;;;5074315;28;20528;-61
2023/01/16 06:51:46;;;;;;;0.90;0.90;;;;;1.60;93699.00;;;;5074403;28;20205;-60
2023/01/16 06:54:15;;;;;;;0.70;0.70;;;;;1.60;93701.00;;;;5074444;28;20209;-60
2023/01/16 06:56:42;;;;;;;0.70;0.70;;;;;1.60;93692.00;;;;5074162;28;20240;-60
2023/01/16 06:59:10;;;;;;;0.70;0.70;;;;;1.50;93677.00;;;;5074246;28;20197;-60
2023/01/16 07:01:37;;;;;;;0.60;0.60;;;;;1.40;93681.00;;;;5074268;28;20189;-60
2023/01/16 07:04:06;;;;;;;0.70;0.70;;;;;1.50;93672.00;;;;5073986;28;20207;-59
2023/01/16 07:06:34;;;;;;;0.70;0.70;;;;;1.50;93674.00;;;;5074067;28;20221;-59
2023/01/16 07:09:01;;;;;;;0.60;0.60;;;;;1.60;93663.00;;;;5073920;28;20194;-60
2023/01/16 07:11:30;;;;;;;0.87;0.87;;;;;1.60;93670.00;;;;5073903;28;20193;-60
2023/01/16 07:24:56;;;;;;;0.70;0.70;;;;;1.50;93650.00;;;;5073314;28;20563;-61
2023/01/16 07:27:25;;;;;;;0.60;0.60;;;;;1.50;93644.00;;;;5073513;28;20196;-61
2023/01/16 07:29:53;;;;;;;0.90;0.90;;;;;1.50;93641.00;;;;5073519;28;20196;-61
2023/01/16 07:32:21;;;;;;;1.70;1.10;;;;;1.50;93627.00;;;;5074016;28;20194;-60
2023/01/16 07:34:48;;;;;;;1.07;1.07;;;;;1.60;93616.00;;;;5073227;28;20233;-60
2023/01/16 07:37:16;;;;;;;0.73;0.73;;;;;1.60;93616.00;;;;5073573;28;20295;-60
2023/01/16 07:39:43;;;;;;;0.70;0.70;;;;;1.50;93609.00;;;;5073357;28;20196;-60
2023/01/16 07:42:11;;;;;;;1.27;1.27;;;;;1.40;93605.00;;;;5073247;28;20197;-60
2023/01/16 07:44:39;;;;;;;0.70;0.70;;;;;1.60;93603.00;;;;5069934;28;20210;-61
2023/01/16 07:47:07;;;;;;;0.97;0.97;;;;;1.70;93594.00;;;;5068319;28;20207;-59
2023/01/16 07:49:34;;;;;;;0.70;0.70;;;;;1.60;93589.00;;;;5071150;28;20198;-60
2023/01/16 07:52:02;;;;;;;0.80;0.80;;;;;1.60;93585.00;;;;5070470;28;20208;-62
2023/01/16 07:54:29;;;;;;;0.77;0.77;;;;;1.60;93578.00;;;;5070746;28;20202;-60
2023/01/16 07:56:57;;;;;;;0.90;0.90;;;;;1.50;93575.00;;;;5069108;28;20203;-60
2023/01/16 07:59:24;;;;;;;0.77;0.77;;;;;1.60;93568.00;;;;5070093;28;20231;-59
2023/01/16 08:01:53;;;;;;;1.07;1.00;;;;;1.60;93570.00;;;;5068794;28;20209;-59
2023/01/16 08:04:20;;;;;;;1.00;1.00;;;;;1.60;93566.00;;;;5070657;28;20263;-60
2023/01/16 08:06:48;;;;;;;0.63;0.63;;;;;1.50;93555.00;;;;5072505;22;20235;-68
2023/01/16 08:09:15;;;;;;;2.40;0.90;;;;;1.60;93532.00;;;;5047886;28;20660;-67
2023/01/16 08:11:46;;;;;;;0.70;0.70;;;;;1.60;93527.00;;;;5050625;28;20280;-68
2023/01/16 08:14:14;;;;;;;0.70;0.70;;;;;1.70;93518.00;;;;5050659;28;20200;-68
2023/01/16 08:16:42;;;;;;;0.70;0.70;;;;;1.70;93512.00;;;;5049864;28;20831;-67
2023/01/16 08:19:11;;;;;;;0.70;0.70;;;;;1.90;93514.00;;;;5046324;28;20224;-68
2023/01/16 08:21:38;;;;;;;0.70;0.70;;;;;1.90;93512.00;;;;5031053;28;20208;-67
2023/01/16 08:24:06;;;;;;;1.10;1.10;;;;;1.90;93508.00;;;;5030172;28;20203;-67
2023/01/16 08:26:34;;;;;;;0.70;0.70;;;;;1.80;93505.00;;;;5030412;28;20219;-67
2023/01/16 08:29:02;;;;;;;0.80;0.80;;;;;1.90;93500.00;;;;5029923;28;20563;-67
2023/01/16 08:31:30;;;;;;;0.60;0.60;;;;;1.80;93500.00;;;;5026096;28;20596;-67
2023/01/16 08:33:57;;;;;;;0.90;0.90;;;;;1.80;93486.00;;;;5045349;28;20721;-67
2023/01/16 08:36:26;;;;;;;0.80;0.80;;;;;1.90;93490.00;;;;5036449;28;20231;-67
2023/01/16 08:38:54;;;;;;;0.67;0.67;;;;;2.10;93497.00;;;;5034648;28;20207;-68
2023/01/16 08:52:30;;;;;;;0.70;0.70;;;;;1.80;93512.00;;;;5030089;28;20245;-69
2023/01/16 08:54:58;;;;;;;0.70;0.70;;;;;2.10;93509.00;;;;5039338;28;20308;-67
2023/01/16 08:57:27;;;;;;;0.70;0.70;;;;;1.90;93511.00;;;;5041221;28;20301;-67
2023/01/16 08:59:54;;;;;;;0.77;0.77;;;;;2.00;93505.00;;;;5036628;28;20552;-67
2023/01/16 09:02:23;;;;;;;0.80;0.80;;;;;2.00;93496.00;;;;5034215;28;20207;-68
2023/01/16 09:04:50;;;;;;;0.80;0.80;;;;;2.00;93493.00;;;;5033903;28;20211;-68
2023/01/16 09:07:18;;;;;;;0.70;0.70;;;;;2.10;93473.00;;;;5033708;28;20219;-68
2023/01/16 09:09:47;;;;;;;0.90;0.90;;;;;2.20;93476.00;;;;5040228;28;20200;-68
2023/01/16 09:15:00;;;;;;;0.70;0.70;;;;;2.50;93470.00;;;;5053782;28;20211;-68
2023/01/16 09:17:28;;;;;;;0.60;0.60;;;;;2.60;93461.00;;;;5054026;28;20298;-68
2023/01/16 09:19:56;;;;;;;0.93;0.93;;;;;2.60;93461.00;;;;5035858;28;20205;-68
2023/01/16 09:22:27;;;;;;;0.63;0.63;;;;;2.90;93461.00;;;;5052540;28;20214;-69
2023/01/16 09:24:56;;;;;;;0.90;0.90;;;;;2.90;93456.00;;;;5054093;28;20249;-69
2023/01/16 09:27:24;;;;;;;0.60;0.60;;;;;2.80;93425.00;;;;5053729;28;20276;-68
2023/01/16 09:29:51;;;;;;;0.60;0.60;;;;;2.80;93434.00;;;;5053827;28;20195;-68
2023/01/16 09:32:19;;;;;;;0.60;0.60;;;;;2.90;93438.00;;;;5029269;28;20208;-68
2023/01/16 09:34:47;;;;;;;0.70;0.70;;;;;2.90;93411.00;;;;5033738;28;20204;-68
2023/01/16 09:37:15;;;;;;;0.60;0.60;;;;;3.10;93418.00;;;;5033538;28;20224;-69
2023/01/16 09:39:42;;;;;;;0.80;0.80;;;;;3.10;93408.00;;;;5034014;28;20659;-68
2023/01/16 09:45:32;;;;;;;0.63;0.63;;;;;3.10;93421.00;;;;4997641;28;20231;-68
2023/01/16 09:48:04;;;;;;;0.70;0.70;;;;;3.10;93425.00;;;;5031791;28;20199;-69
2023/01/16 09:50:36;;;;;;;0.70;0.70;;;;;3.10;93418.00;;;;5033416;28;20659;-69
2023/01/16 09:58:44;;;;;;;0.63;0.63;;;;;3.20;93401.00;;;;5032458;28;20254;-68
2023/01/16 10:01:16;;;;;;;0.60;0.60;;;;;3.20;93401.00;;;;5033527;28;20203;-69
2023/01/16 10:03:43;;;;;;;0.50;0.50;;;;;3.20;93408.00;;;;5028417;28;20678;-69
2023/01/16 10:06:24;;;;;;;0.60;0.60;;;;;3.10;93395.00;;;;5033057;28;20318;-68
2023/01/16 10:09:09;;;;;;;0.70;0.70;;;;;3.20;93399.00;;;;5033268;28;20199;-69
2023/01/16 10:11:41;;;;;;;0.70;0.70;;;;;3.20;93383.00;;;;5033118;28;20196;-68
2023/01/16 10:14:24;;;;;;;0.70;0.70;;;;;3.20;93383.00;;;;5031981;28;20276;-68
2023/01/16 10:17:04;;;;;;;0.70;0.70;;;;;3.30;93379.00;;;;5032691;28;20235;-68
2023/01/16 10:19:46;;;;;;;0.80;0.80;;;;;3.30;93385.00;;;;5032848;28;20544;-69
2023/01/16 10:22:23;;;;;;;0.60;0.60;;;;;3.30;93371.00;;;;5033103;28;20196;-68
2023/01/16 10:25:05;;;;;;;0.70;0.70;;;;;3.20;93363.00;;;;5032028;28;20246;-69
2023/01/16 10:27:42;;;;;;;0.70;0.70;;;;;3.40;93370.00;;;;5031620;28;20188;-69
2023/01/16 10:30:16;;;;;;;0.70;0.70;;;;;3.40;93370.00;;;;5032136;28;20199;-69
2023/01/16 10:32:48;;;;;;;0.60;0.60;;;;;3.30;93359.00;;;;5031891;28;20189;-68
2023/01/16 10:35:21;;;;;;;0.60;0.60;;;;;3.40;93344.00;;;;5031166;28;20575;-68
2023/01/16 10:37:50;;;;;;;0.80;0.80;;;;;3.40;93340.00;;;;5032410;28;20211;-68
2023/01/16 10:40:24;;;;;;;0.90;0.90;;;;;3.30;93341.00;;;;5032310;28;20344;-68
2023/01/16 10:51:17;;;;;;;1.03;0.90;;;;;3.60;93334.00;;;;5032170;28;20205;-69
2023/01/16 10:53:46;;;;;;;0.70;0.70;;;;;3.50;93322.00;;;;5032098;28;20286;-69
2023/01/16 10:56:13;;;;;;;0.60;0.60;;;;;3.50;93302.00;;;;5031972;28;20225;-69
2023/01/16 10:58:41;;;;;;;0.60;0.60;;;;;3.40;93315.00;;;;5031961;28;20618;-69
2023/01/16 11:01:15;;;;;;;1.97;1.30;;;;;3.60;93307.00;;;;5029936;28;20283;-68
2023/01/16 11:03:44;;;;;;;1.17;1.17;;;;;3.60;93300.00;;;;5031641;28;20208;-68
2023/01/16 11:06:14;;;;;;;0.77;0.77;;;;;3.60;93293.00;;;;5031753;28;20229;-68
2023/01/16 11:08:43;;;;;;;0.80;0.80;;;;;3.40;93282.00;;;;5031751;28;20663;-68
2023/01/16 11:19:30;;;;;;;0.83;0.83;;;;;3.30;93254.00;;;;5032174;28;20224;-68
2023/01/16 11:22:23;;;;;;;0.70;0.70;;;;;3.50;93262.00;;;;5088247;27;20555;-69
2023/01/16 11:24:56;;;;;;;0.50;0.50;;;;;3.60;93250.00;;;;5084811;28;20244;-69
2023/01/16 11:27:28;;;;;;;0.67;0.67;;;;;3.40;93244.00;;;;5068035;28;20233;-69
2023/01/16 11:29:58;;;;;;;0.80;0.80;;;4.20;63.70;3.20;93235.00;;;;5068221;28;20187;-67
2023/01/16 11:32:28;;;;;;;0.80;0.80;;;;;3.40;93225.00;;;;5067751;28;20209;-67
2023/01/16 11:34:58;;;;;;;0.60;0.60;;;4.30;64.60;3.40;93232.00;;;;5068054;28;20199;-68
2023/01/16 11:37:29;;;;;;;0.70;0.70;;;;;3.60;93213.00;;;;5067631;28;20219;-68
2023/01/16 11:40:03;;;;;;;1.17;1.07;;;4.30;65.00;3.40;93192.00;;;;5065151;28;20670;-68
2023/01/16 11:51:05;;;;;;;0.63;0.63;;;;;3.60;93180.00;;;;5088858;28;20904;-68
2023/01/16 11:53:35;;;;;;;0.70;0.70;;;;;3.60;93169.00;;;;5087963;28;20251;-68
2023/01/16 11:56:23;;;;;;;0.70;0.70;;;;;3.60;93162.00;;;;5088477;28;20222;-68
2023/01/16 11:59:06;;;;;;;1.00;1.00;;;;;3.50;93183.00;;;;5076504;28;20218;-70
2023/01/16 12:04:24;;;;;;;0.70;0.70;;;;;3.40;93146.00;;;;5087450;28;20201;-73
2023/01/16 12:07:03;;;;;;;1.10;1.10;;;;;3.30;93139.00;;;;5088330;28;20786;-71
2023/01/16 12:09:42;;;;;;;0.60;0.60;;;;;3.40;93134.00;;;;5088131;28;20210;-71
2023/01/16 12:15:09;;;;;;;0.70;0.70;;;;;3.20;93110.00;;;;5083413;28;20322;-73
2023/01/16 12:17:53;;;;;;;2.00;1.50;;;;;3.30;93112.00;;;;5082103;28;20661;-73
2023/01/16 12:20:29;;;;;;;0.80;0.80;;;;;3.20;93099.00;;;;5087437;28;20186;-72
2023/01/16 12:23:26;;;;;;;0.97;0.97;;;;;3.20;93095.00;;;;5087625;28;20186;-72
2023/01/16 12:26:04;;;;;;;0.83;0.70;;;;;3.30;93085.00;;;;5080943;28;20233;-72
2023/01/16 12:28:42;;;;;;;0.60;0.60;;;;;3.40;93089.00;;;;5086078;28;20268;-72
2023/01/16 12:31:34;;;;;;;0.70;0.70;;;;;3.40;93080.00;;;;5084310;28;20668;-71
2023/01/16 12:34:16;;;;;;;0.97;0.97;;;;;3.30;93071.00;;;;5087294;28;20271;-67
2023/01/16 12:37:00;;;;;;;0.77;0.77;;;4.50;67.10;3.70;93061.00;;;;5084271;28;20283;-68
2023/01/16 12:39:43;;;;;;;1.27;1.27;;;4.80;65.50;4.00;93048.00;;;;5066658;28;20593;-67
2023/01/16 12:45:16;;;;;;;0.70;0.70;;;;;4.20;93051.00;;;;5067036;28;20184;-67
2023/01/16 12:47:59;;;;;;;0.80;0.80;;;;;4.20;93045.00;;;;5063353;28;20250;-67
2023/01/16 12:50:40;;;;;;;0.57;0.57;;;;;4.20;93037.00;;;;5065656;28;20306;-67
2023/01/16 12:53:28;;;;;;;0.60;0.60;;;;;4.00;93033.00;;;;5062870;28;20192;-67
2023/01/16 12:56:02;;;;;;;0.60;0.60;;;;;4.10;93030.00;;;;5067044;28;20227;-66
2023/01/16 12:58:33;;;;;;;0.60;0.60;;;;;4.20;93018.00;;;;5066436;28;20195;-68
2023/01/16 13:01:10;;;;;;;0.70;0.70;;;;;4.40;93002.00;;;;5061110;28;20188;-68
2023/01/16 13:03:42;;;;;;;0.80;0.80;;;;;4.50;93007.00;;;;5049545;28;20199;-67
2023/01/16 13:06:15;;;;;;;0.93;0.93;;;;;4.20;93004.00;;;;5053388;28;20220;-68
2023/01/16 13:08:49;;;;;;;0.90;0.90;;;;;4.80;92967.00;;;;5052323;28;20650;-67
2023/01/16 13:14:12;;;;;;;0.60;0.60;;;;;5.90;92964.00;;;;5053543;28;20227;-67
2023/01/16 13:16:45;;;;;;;0.60;0.60;;;;;5.60;92967.00;;;;5052763;28;20212;-68
2023/01/16 13:19:16;;;;;;;0.70;0.70;;;;;5.00;92974.00;;;;5052135;28;20221;-68
2023/01/16 13:22:05;;;;;;;0.60;0.60;;;;;5.00;92957.00;;;;5052684;28;20275;-68
2023/01/16 13:24:36;;;;;;;0.73;0.73;;;;;4.80;92950.00;;;;5049820;28;20193;-67
2023/01/16 13:27:12;;;;;;;0.60;0.60;;;;;4.70;92934.00;;;;5052874;28;20235;-68
2023/01/16 13:29:47;;;;;;;0.70;0.70;;;;;5.30;92955.00;;;;5053228;28;20215;-69
2023/01/16 13:32:26;;;;;;;0.70;0.70;;;;;5.80;92917.00;;;;5052630;28;20714;-68
2023/01/16 13:34:59;;;;;;;0.70;0.70;;;;;5.40;92935.00;;;;5048736;28;20196;-68
2023/01/16 13:38:06;;;;;;;0.60;0.60;;;;;5.00;92947.00;;;;5052828;28;20219;-68
2023/01/16 13:40:58;;;;;;;0.60;0.60;;;;;4.90;92935.00;;;;5047792;28;20244;-68
2023/01/16 13:46:18;;;;;;;0.70;0.70;;;;;4.40;92937.00;;;;5050515;28;20235;-68
2023/01/16 13:48:52;;;;;;;0.70;0.70;;;;;4.40;92953.00;;;;5053161;28;20196;-67
2023/01/16 13:51:23;;;;;;;1.00;1.00;;;;;4.30;92950.00;;;;5052143;28;20207;-68
2023/01/16 13:53:55;;;;;;;0.70;0.70;;;;;4.30;92955.00;;;;5052870;28;20188;-69
2023/01/16 13:56:24;;;;;;;0.60;0.60;;;;;4.10;92943.00;;;;5049962;28;20231;-68
2023/01/16 13:59:01;;;;;;;0.60;0.60;;;;;4.00;92948.00;;;;5048548;28;20577;-68
2023/01/16 14:01:38;;;;;;;0.90;0.90;;;;;3.90;92962.00;;;;5052103;28;20207;-68
2023/01/16 14:04:28;;;;;;;0.70;0.70;;;;;3.90;92950.00;;;;5051251;28;20261;-69
2023/01/16 14:10:04;;;;;;;0.70;0.70;;;;;3.70;92936.00;;;;5051926;28;20377;-67